Bad River Indian Reservation, Wisconsin
Current Conditions -  °F | °C
As of 6:53 AM on Sunday 23 Nov 2014 (Local Time) from KASX Reporting Station
Haze Haze  
Wind Chill: 39°   Ceiling: 800
Heat Index: 43°   Visibility: 6mi
Dew Point: 42°   Wind: 6mph
Humidity: 97%   Direction: 180°S
Pressure: 29.43"   Gusts: NA
Location:  46.543°N, 90.8706°W
Report Text: KASX 231253Z AUTO 18005KT 6SM BR OVC008 06/06 A2943 RMK AO2 SLP974 T00610056
Loading
Personal Weather Stations






























Interactive Weather Map New forecast layout! Learn more

10-Day Weather Forecast

Advertisements
Track Severe Weather on mobile